createdAt,value
2019-04-07T00:03:55.053Z,81.25
2019-04-07T00:09:18.874Z,82.104492
2019-04-07T00:14:40.924Z,82.208252
2019-04-07T00:20:04.370Z,82.409668
2019-04-07T00:25:27.558Z,82.611084
2019-04-07T00:30:50.015Z,82.104492
2019-04-07T00:36:13.356Z,82.409668
2019-04-07T00:41:36.437Z,83.709717
2019-04-07T00:46:58.685Z,83.813477
2019-04-07T00:52:21.493Z,83.26416
2019-04-07T00:57:44.099Z,83.612061
2019-04-07T01:03:07.248Z,82.751465
2019-04-07T01:08:29.403Z,83.062744
2019-04-07T01:13:51.900Z,83.709717
2019-04-07T01:19:15.500Z,83.813477
2019-04-07T01:24:39.468Z,84.875488
2019-04-07T01:30:02.903Z,85.015869
2019-04-07T01:35:25.547Z,85.83374
2019-04-07T01:40:47.849Z,85.217285
2019-04-07T01:46:11.031Z,85.72998
2019-04-07T01:51:33.328Z,86.486816
2019-04-07T01:56:55.984Z,86.730957
2019-04-07T02:02:18.932Z,86.627197
2019-04-07T02:07:41.409Z,86.218262
2019-04-07T02:13:04.330Z,85.60791
2019-04-07T02:18:26.909Z,87.078857
2019-04-07T02:23:49.635Z,87.530518
2019-04-07T02:29:12.617Z,87.731934
2019-04-07T02:34:35.953Z,87.530518
2019-04-07T02:39:58.838Z,88.391113
2019-04-07T02:45:21.804Z,89.312744
2019-04-07T02:50:45.204Z,89.001465
2019-04-07T02:56:08.066Z,89.044189
2019-04-07T03:01:30.275Z,88.287354
2019-04-07T03:06:54.465Z,89.703369
2019-04-07T03:12:16.149Z,90.216064
2019-04-07T03:17:40.061Z,89.39209
2019-04-07T03:23:03.483Z,88.842773
2019-04-07T03:28:27.096Z,89.294434
2019-04-07T03:33:49.917Z,89.294434
2019-04-07T03:39:13.126Z,88.983154
2019-04-07T03:44:36.575Z,87.609863
2019-04-07T03:49:59.685Z,85.723877
2019-04-07T03:55:21.855Z,85.931396
2019-04-07T04:00:44.195Z,85.522461
2019-04-07T04:06:07.099Z,84.393311
2019-04-07T04:11:30.351Z,82.373047
2019-04-07T04:16:53.011Z,82.714844
2019-04-07T04:22:15.669Z,82.305908
2019-04-07T04:27:38.704Z,82.513428
2019-04-07T04:33:02.057Z,81.243896
2019-04-07T04:38:26.228Z,79.571533
2019-04-07T04:43:49.145Z,79.370117
2019-04-07T04:49:11.792Z,79.675293
2019-04-07T04:54:35.435Z,81.591797
2019-04-07T04:59:58.042Z,82.446289
2019-04-07T05:05:20.083Z,82.446289
2019-04-07T05:10:42.734Z,81.384277
2019-04-07T05:16:05.954Z,82.104492
2019-04-07T05:21:28.938Z,81.896973
2019-04-07T05:26:51.799Z,80.328369
2019-04-07T05:32:14.553Z,79.91333
2019-04-07T05:37:36.747Z,79.608154
2019-04-07T05:42:59.897Z,79.711914
2019-04-07T05:48:22.707Z,77.832031
2019-04-07T05:53:46.484Z,78.137207
2019-04-07T05:59:10.839Z,77.288818
2019-04-07T06:04:31.871Z,77.185059
2019-04-07T06:09:55.646Z,76.434326
2019-04-07T06:15:21.889Z,77.661133
2019-04-07T06:20:44.055Z,76.702881
2019-04-07T06:26:06.647Z,75.439453
2019-04-07T06:31:31.204Z,74.89624
2019-04-07T06:36:53.483Z,75.305176
2019-04-07T06:42:13.095Z,74.89624
2019-04-07T06:47:35.723Z,74.047852
2019-04-07T06:52:58.880Z,73.095703
2019-04-07T06:58:21.015Z,74.01123
2019-04-07T07:03:43.727Z,73.571777
2019-04-07T07:09:08.163Z,73.468018
2019-04-07T07:14:38.113Z,73.736572
2019-04-07T07:19:56.696Z,72.686768
2019-04-07T07:25:18.725Z,70.074463
2019-04-07T07:30:42.736Z,69.63501
2019-04-07T07:36:06.787Z,68.109131
2019-04-07T07:41:29.046Z,71.734619
2019-04-07T07:46:51.844Z,68.829346
2019-04-07T07:52:16.470Z,67.547607
2019-04-07T07:57:37.957Z,65.863037
2019-04-07T08:03:01.540Z,64.51416
2019-04-07T08:08:24.260Z,62.298584
2019-04-07T08:13:47.092Z,60.418701
2019-04-07T08:19:10.211Z,59.759521
2019-04-07T08:24:32.684Z,59.020996
2019-04-07T08:29:54.807Z,54.559326
2019-04-07T08:35:17.636Z,56.37207
2019-04-07T08:40:40.502Z,55.944824
2019-04-07T08:46:04.653Z,57.122803
2019-04-07T08:51:27.342Z,54.907227
2019-04-07T08:56:50.168Z,54.58374
2019-04-07T09:02:11.721Z,56.695557
2019-04-07T09:07:35.329Z,56.018066
2019-04-07T09:13:00.588Z,55.712891
2019-04-07T09:18:21.681Z,53.948975
2019-04-07T09:23:44.317Z,53.771973
2019-04-07T09:29:07.123Z,55.352783
2019-04-07T09:34:30.227Z,50.408936
2019-04-07T09:39:58.381Z,52.191162
2019-04-07T09:45:15.033Z,51.062012
2019-04-07T09:50:37.660Z,51.464844
2019-04-07T09:56:00.366Z,51.538086
2019-04-07T10:01:27.613Z,51.013184
2019-04-07T10:06:47.443Z,52.368164
2019-04-07T10:12:10.126Z,48.406982
2019-04-07T10:17:32.971Z,47.32666
2019-04-07T10:22:55.600Z,50.286865
2019-04-07T10:28:18.776Z,47.784424
2019-04-07T10:33:41.661Z,49.713135
2019-04-07T10:39:04.005Z,48.010254
2019-04-07T10:44:26.092Z,49.365234
2019-04-07T10:49:57.820Z,45.135498
2019-04-07T10:55:13.004Z,48.614502
2019-04-07T11:00:34.902Z,48.138428
2019-04-07T11:05:59.300Z,49.243164
2019-04-07T11:11:21.379Z,51.446533
2019-04-07T11:16:44.171Z,45.709229
2019-04-07T11:22:06.755Z,52.819824
2019-04-07T11:27:29.465Z,47.747803
2019-04-07T11:32:52.182Z,55.24292
2019-04-07T11:38:14.879Z,52.69165
2019-04-07T11:43:38.091Z,51.043701
2019-04-07T11:49:00.829Z,46.429443
2019-04-07T11:54:25.175Z,43.890381
2019-04-07T11:59:47.311Z,46.136475
2019-04-07T12:05:10.742Z,46.081543
2019-04-07T12:10:34.386Z,41.174316
2019-04-07T12:15:57.784Z,42.987061
2019-04-07T12:21:23.077Z,41.278076
2019-04-07T12:26:43.666Z,41.931152
2019-04-07T12:32:06.470Z,41.693115
2019-04-07T12:37:29.116Z,42.169189
